Time;durP1;ratioP1;P1;durP2;ratioP2;P2;SDS_P1;SDS_P2;PMS_P1;PMS_P2;Temp;Humidity;BMP_temperature;BMP_pressure;BME280_temperature;BME280_humidity;BME280_pressure;Samples;Min_cycle;Max_cycle;Signal;HPM_P1;HPM_P2
2021/03/24 00:01:26;;;;;;;2.33;1.27;;;23.70;44.40;;;;;;5062260;28;20123;-64
2021/03/24 00:03:52;;;;;;;2.45;1.40;;;23.70;44.40;;;;;;5065590;28;20025;-63
2021/03/24 00:06:19;;;;;;;2.47;1.45;;;23.70;44.40;;;;;;5060988;28;20143;-63
2021/03/24 00:08:45;;;;;;;1.55;1.20;;;23.70;44.30;;;;;;5043749;28;20556;-63
2021/03/24 00:11:12;;;;;;;2.53;1.42;;;23.70;44.30;;;;;;5065048;28;20021;-61
2021/03/24 00:13:38;;;;;;;2.22;1.40;;;23.70;44.30;;;;;;5065537;28;20025;-62
2021/03/24 00:16:05;;;;;;;2.40;1.48;;;23.70;44.30;;;;;;5061245;28;20040;-64
2021/03/24 00:18:31;;;;;;;1.85;1.25;;;23.60;44.20;;;;;;5044444;28;20032;-63
2021/03/24 00:20:58;;;;;;;2.53;1.60;;;23.60;44.20;;;;;;5046267;28;20052;-65
2021/03/24 00:23:24;;;;;;;2.40;1.40;;;23.60;44.20;;;;;;5049370;28;20532;-61
2021/03/24 00:25:50;;;;;;;1.98;1.48;;;23.60;44.20;;;;;;5065376;28;20056;-62
2021/03/24 00:28:17;;;;;;;2.72;1.50;;;23.60;44.20;;;;;;5065479;28;20028;-64
2021/03/24 00:30:46;;;;;;;1.90;1.30;;;23.60;44.20;;;;;;5064422;28;20690;-64
2021/03/24 00:33:15;;;;;;;2.75;1.50;;;23.60;44.30;;;;;;5065582;28;20111;-63
2021/03/24 00:35:41;;;;;;;2.03;1.40;;;23.60;44.20;;;;;;5064590;28;20067;-63
2021/03/24 00:38:07;;;;;;;1.77;1.27;;;23.60;44.20;;;;;;5064953;28;20028;-64
2021/03/24 00:40:39;;;;;;;2.45;1.35;;;23.50;44.10;;;;;;5065365;28;20071;-63
2021/03/24 00:43:06;;;;;;;2.20;1.30;;;23.50;44.10;;;;;;5070778;28;20027;-63
2021/03/24 00:45:32;;;;;;;1.98;1.30;;;23.50;44.10;;;;;;5068640;28;20043;-63
2021/03/24 00:47:58;;;;;;;2.08;1.38;;;23.50;44.10;;;;;;5048926;28;20060;-63
2021/03/24 00:50:26;;;;;;;2.10;1.30;;;23.50;44.10;;;;;;5064773;28;20059;-63
2021/03/24 00:52:52;;;;;;;1.77;1.20;;;23.50;44.10;;;;;;5064571;28;20029;-62
2021/03/24 00:55:18;;;;;;;1.75;1.20;;;23.50;44.10;;;;;;5064398;28;20808;-65
2021/03/24 00:57:44;;;;;;;2.03;1.30;;;23.40;44.00;;;;;;5077343;28;20500;-62
2021/03/24 01:00:32;;;;;;;2.08;1.30;;;23.50;44.10;;;;;;5083859;28;20077;-64
2021/03/24 01:02:58;;;;;;;2.28;1.30;;;23.40;44.10;;;;;;5046718;28;20383;-64
2021/03/24 01:05:24;;;;;;;2.90;1.50;;;23.40;44.00;;;;;;5063548;28;20040;-62
2021/03/24 01:07:52;;;;;;;1.88;1.27;;;23.40;44.00;;;;;;5063274;28;20036;-63
2021/03/24 01:10:24;;;;;;;1.88;1.10;;;23.40;44.00;;;;;;5046481;28;20112;-63
2021/03/24 01:12:50;;;;;;;2.30;1.38;;;23.40;44.00;;;;;;5064377;28;20455;-63
2021/03/24 01:15:16;;;;;;;1.60;1.10;;;23.40;44.00;;;;;;5059825;28;20075;-62
2021/03/24 01:17:42;;;;;;;2.00;1.20;;;23.40;43.90;;;;;;5065203;28;20028;-62
2021/03/24 01:20:08;;;;;;;2.80;1.60;;;23.40;44.00;;;;;;5065106;28;20090;-65
2021/03/24 01:22:34;;;;;;;2.10;1.30;;;23.30;43.90;;;;;;5064415;28;20032;-63
2021/03/24 01:24:59;;;;;;;2.25;1.42;;;23.40;44.00;;;;;;5063105;28;20545;-63
2021/03/24 01:27:28;;;;;;;2.00;1.20;;;23.40;44.00;;;;;;5065122;28;20028;-63
2021/03/24 01:29:54;;;;;;;1.95;1.25;;;23.40;43.90;;;;;;5065481;28;20052;-63
2021/03/24 01:32:19;;;;;;;2.10;1.23;;;23.30;43.90;;;;;;5074851;28;20059;-61
2021/03/24 01:34:45;;;;;;;2.15;1.20;;;23.30;43.90;;;;;;5071775;28;20028;-63
2021/03/24 01:37:10;;;;;;;1.60;1.17;;;23.30;43.90;;;;;;5067722;28;20037;-63
2021/03/24 01:39:37;;;;;;;2.53;1.13;;;23.30;43.90;;;;;;5055432;28;20043;-64
2021/03/24 01:42:03;;;;;;;2.78;1.63;;;23.30;43.90;;;;;;5055454;28;20036;-62
2021/03/24 01:44:28;;;;;;;2.00;1.30;;;23.30;43.80;;;;;;5063225;28;20080;-64
2021/03/24 01:46:54;;;;;;;2.00;1.20;;;23.30;43.80;;;;;;5054101;28;20428;-62
2021/03/24 01:49:35;;;;;;;1.80;1.20;;;23.30;43.80;;;;;;5031252;28;20036;-63
2021/03/24 01:52:05;;;;;;;2.47;1.45;;;23.30;43.80;;;;;;5063564;28;20129;-63
2021/03/24 01:54:32;;;;;;;;;;;23.30;43.80;;;;;;5064181;28;20116;-62
2021/03/24 01:57:03;;;;;;;1.63;1.10;;;23.30;43.80;;;;;;5056099;28;19962;-64
2021/03/24 01:59:29;;;;;;;1.95;1.10;;;23.30;44.30;;;;;;5078378;28;20359;-63
2021/03/24 02:01:55;;;;;;;1.77;1.25;;;23.20;43.70;;;;;;5055364;28;20036;-64
2021/03/24 02:04:21;;;;;;;1.70;1.13;;;23.20;43.70;;;;;;5065250;28;20391;-62
2021/03/24 02:06:57;;;;;;;2.10;1.30;;;23.20;43.70;;;;;;5066564;28;20047;-64
2021/03/24 02:09:53;;;;;;;2.17;1.23;;;23.20;43.70;;;;;;5084060;28;20589;-64
2021/03/24 02:12:30;;;;;;;2.90;1.48;;;23.20;43.80;;;;;;5067819;28;20082;-63
2021/03/24 02:15:08;;;;;;;1.73;1.20;;;23.20;43.80;;;;;;5066416;28;20035;-63
2021/03/24 02:17:39;;;;;;;2.75;1.30;;;23.20;43.70;;;;;;5066112;28;20027;-65
2021/03/24 02:20:18;;;;;;;2.30;1.40;;;23.10;43.70;;;;;;5065884;28;20363;-63
2021/03/24 02:22:49;;;;;;;2.13;1.33;;;23.10;43.70;;;;;;5067741;28;20650;-63
2021/03/24 02:25:37;;;;;;;2.70;1.38;;;23.10;43.70;;;;;;5061238;28;20074;-62
2021/03/24 02:28:08;;;;;;;1.90;1.38;;;23.10;43.70;;;;;;5048467;28;20032;-63
2021/03/24 02:30:36;;;;;;;2.47;1.30;;;23.10;43.70;;;;;;5063307;28;20029;-65
2021/03/24 02:33:06;;;;;;;2.13;1.30;;;23.10;43.70;;;;;;5067249;28;20035;-63
2021/03/24 02:35:36;;;;;;;1.95;1.40;;;23.10;43.60;;;;;;5055111;28;20041;-62
2021/03/24 02:38:07;;;;;;;2.17;1.40;;;23.10;43.70;;;;;;5047109;28;20033;-65
2021/03/24 02:40:34;;;;;;;2.40;1.25;;;23.10;43.70;;;;;;5046410;28;20033;-65
2021/03/24 02:43:02;;;;;;;2.30;1.45;;;23.10;43.70;;;;;;5081505;28;20044;-63
2021/03/24 02:45:32;;;;;;;2.30;1.30;;;23.10;43.70;;;;;;5067841;28;20037;-64
2021/03/24 02:48:01;;;;;;;2.22;1.40;;;23.00;43.60;;;;;;5046989;28;20077;-64
2021/03/24 02:50:28;;;;;;;2.15;1.40;;;23.10;44.20;;;;;;5065755;28;20032;-62
2021/03/24 02:52:55;;;;;;;2.47;1.30;;;23.00;43.60;;;;;;5065086;28;20040;-63
2021/03/24 02:55:23;;;;;;;2.10;1.30;;;23.00;43.60;;;;;;5048016;28;20056;-62
2021/03/24 02:57:49;;;;;;;2.38;1.50;;;23.00;43.60;;;;;;5066469;28;20072;-65
2021/03/24 03:00:19;;;;;;;2.30;1.35;;;23.00;43.60;;;;;;5082735;28;20032;-65
2021/03/24 03:02:51;;;;;;;2.33;1.30;;;23.00;43.60;;;;;;5074515;28;20440;-64
2021/03/24 03:05:22;;;;;;;2.55;1.60;;;23.00;43.60;;;;;;5072259;28;20032;-64
2021/03/24 03:08:05;;;;;;;2.70;1.55;;;23.00;43.60;;;;;;5064391;28;20083;-62
2021/03/24 03:10:58;;;;;;;2.03;1.40;;;23.00;43.60;;;;;;5046879;28;20021;-64
2021/03/24 03:13:31;;;;;;;2.38;1.40;;;23.00;43.60;;;;;;5038124;28;20033;-63
2021/03/24 03:16:15;;;;;;;1.80;1.17;;;23.00;43.60;;;;;;5053217;28;20063;-63
2021/03/24 03:18:58;;;;;;;2.53;1.40;;;22.90;43.60;;;;;;5084855;28;20120;-64
2021/03/24 03:21:42;;;;;;;2.70;1.60;;;22.90;43.50;;;;;;5051248;28;20548;-63
2021/03/24 03:24:10;;;;;;;2.55;1.35;;;22.90;43.50;;;;;;5048813;28;20094;-63
2021/03/24 03:26:39;;;;;;;2.47;1.50;;;22.90;43.50;;;;;;5065712;28;20032;-64
2021/03/24 03:29:15;;;;;;;2.75;1.75;;;22.90;43.50;;;;;;5065203;28;20036;-62
2021/03/24 03:31:43;;;;;;;2.30;1.50;;;22.90;43.50;;;;;;5055767;28;20059;-63
2021/03/24 03:34:12;;;;;;;2.60;1.63;;;22.90;43.50;;;;;;5077533;28;20047;-64
2021/03/24 03:36:40;;;;;;;2.50;1.50;;;22.90;43.50;;;;;;5066535;28;20094;-62
2021/03/24 03:39:19;;;;;;;2.50;1.60;;;22.90;43.50;;;;;;5065862;28;20808;-64
2021/03/24 03:41:45;;;;;;;2.72;1.48;;;22.90;43.50;;;;;;5066288;28;20066;-62
2021/03/24 03:44:13;;;;;;;1.95;1.40;;;22.90;43.50;;;;;;5064993;28;20440;-63
2021/03/24 03:46:45;;;;;;;3.38;1.58;;;22.80;44.00;;;;;;5065287;28;20141;-64
2021/03/24 03:49:11;;;;;;;2.78;1.50;;;22.80;43.50;;;;;;5066692;28;20031;-62
2021/03/24 03:51:55;;;;;;;1.98;1.38;;;22.80;43.40;;;;;;5063847;28;20131;-62
2021/03/24 03:54:28;;;;;;;2.20;1.40;;;22.80;43.40;;;;;;5059897;28;20032;-63
2021/03/24 03:57:22;;;;;;;2.63;1.55;;;22.80;43.40;;;;;;5064349;28;20114;-62
2021/03/24 03:59:57;;;;;;;2.67;1.50;;;22.80;43.50;;;;;;5056277;28;20637;-63
2021/03/24 04:02:33;;;;;;;2.13;1.50;;;22.80;43.40;;;;;;5064971;28;20046;-63
2021/03/24 04:05:06;;;;;;;2.58;1.60;;;22.80;43.50;;;;;;5046005;28;20087;-62
2021/03/24 04:07:57;;;;;;;3.28;1.63;;;22.80;44.00;;;;;;5031753;28;20028;-62
2021/03/24 04:10:25;;;;;;;2.50;1.40;;;22.80;43.50;;;;;;5047647;28;20044;-64
2021/03/24 04:12:54;;;;;;;2.28;1.40;;;22.80;43.50;;;;;;5047761;28;20749;-63
2021/03/24 04:15:21;;;;;;;3.22;1.60;;;22.80;43.50;;;;;;5064587;28;20028;-64
2021/03/24 04:17:55;;;;;;;3.30;1.50;;;22.80;43.50;;;;;;5056942;28;20029;-63
2021/03/24 04:20:23;;;;;;;2.20;1.42;;;22.80;43.50;;;;;;5058139;28;20032;-62
2021/03/24 04:22:51;;;;;;;2.47;1.42;;;22.70;43.40;;;;;;5046370;28;20036;-63
2021/03/24 04:25:51;;;;;;;2.88;1.55;;;22.70;43.40;;;;;;5061163;28;20028;-62
2021/03/24 04:28:22;;;;;;;2.70;1.55;;;22.70;43.40;;;;;;5040458;28;20649;-64
2021/03/24 04:30:55;;;;;;;3.60;1.50;;;22.70;43.40;;;;;;5062634;28;20546;-63
2021/03/24 04:33:21;;;;;;;2.42;1.50;;;22.80;43.50;;;;;;5066085;28;20029;-64
2021/03/24 04:35:48;;;;;;;2.72;1.40;;;22.70;43.40;;;;;;5065268;28;20035;-65
2021/03/24 04:38:33;;;;;;;2.63;1.60;;;22.70;43.40;;;;;;5064393;28;20451;-65
2021/03/24 04:41:05;;;;;;;2.20;1.40;;;22.70;43.40;;;;;;5065187;28;20039;-63
2021/03/24 04:43:36;;;;;;;1.98;1.40;;;22.70;43.50;;;;;;5046958;28;20131;-63
2021/03/24 04:46:11;;;;;;;2.50;1.50;;;22.70;43.40;;;;;;5063370;28;20174;-62
2021/03/24 04:48:51;;;;;;;2.20;1.40;;;22.70;44.00;;;;;;5065337;28;20384;-65
2021/03/24 04:51:21;;;;;;;;;;;22.70;43.40;;;;;;5047728;28;20051;-62
2021/03/24 04:54:20;;;;;;;2.58;1.40;;;22.70;43.40;;;;;;5065223;28;19927;-65
2021/03/24 04:56:57;;;;;;;2.22;1.30;;;22.70;43.50;;;;;;5039968;28;20076;-65
2021/03/24 04:59:28;;;;;;;2.20;1.30;;;22.70;43.50;;;;;;5072626;28;20024;-63
2021/03/24 05:01:57;;;;;;;1.95;1.20;;;22.70;43.40;;;;;;5062621;28;20043;-63
2021/03/24 05:04:34;;;;;;;2.50;1.40;;;22.70;43.50;;;;;;5063866;28;20793;-62
2021/03/24 05:07:09;;;;;;;2.72;1.40;;;22.60;43.40;;;;;;5051890;28;20049;-62
2021/03/24 05:09:35;;;;;;;2.42;1.40;;;22.60;43.40;;;;;;5049427;28;20455;-62
2021/03/24 05:12:22;;;;;;;1.90;1.40;;;22.60;43.40;;;;;;5063224;28;20028;-63
2021/03/24 05:14:53;;;;;;;1.92;1.25;;;22.60;43.40;;;;;;5059693;28;20036;-65
2021/03/24 05:17:29;;;;;;;2.45;1.33;;;22.60;43.40;;;;;;5059268;28;20383;-65
2021/03/24 05:20:22;;;;;;;2.05;1.20;;;22.60;43.40;;;;;;5079585;28;20359;-62
2021/03/24 05:22:48;;;;;;;2.38;1.20;;;22.60;43.40;;;;;;5027206;28;20064;-62
2021/03/24 05:25:21;;;;;;;2.22;1.40;;;22.60;43.40;;;;;;5060817;28;20070;-63
2021/03/24 05:27:57;;;;;;;2.13;1.35;;;22.60;43.40;;;;;;5064981;28;20566;-64
2021/03/24 05:30:28;;;;;;;2.05;1.30;;;22.60;44.00;;;;;;5062446;28;20420;-63
2021/03/24 05:33:12;;;;;;;2.45;1.30;;;22.60;43.40;;;;;;5075894;28;20033;-64
2021/03/24 05:35:46;;;;;;;2.38;1.30;;;22.60;43.40;;;;;;5063423;28;20028;-63
2021/03/24 05:38:37;;;;;;;2.40;1.30;;;22.60;43.40;;;;;;5064258;28;20151;-64
2021/03/24 05:41:34;;;;;;;2.17;1.30;;;22.60;43.40;;;;;;5063649;28;20312;-64
2021/03/24 05:44:49;;;;;;;2.42;1.30;;;22.60;43.30;;;;;;5059725;28;20032;-63
2021/03/24 05:47:36;;;;;;;2.17;1.35;;;22.60;43.30;;;;;;5009841;28;20035;-62
2021/03/24 05:50:23;;;;;;;1.60;1.13;;;22.60;43.20;;;;;;5067840;28;20121;-63
2021/03/24 05:52:57;;;;;;;2.08;1.25;;;22.60;43.20;;;;;;5067575;28;20035;-62
2021/03/24 05:55:52;;;;;;;2.50;1.30;;;22.60;43.20;;;;;;5060254;28;20504;-63
2021/03/24 05:58:33;;;;;;;2.47;1.20;;;22.50;43.10;;;;;;5004722;28;20371;-62
2021/03/24 06:01:21;;;;;;;2.15;1.20;;;22.50;43.10;;;;;;5062657;28;20036;-64
2021/03/24 06:03:56;;;;;;;2.55;1.25;;;22.60;43.10;;;;;;5064726;28;20032;-62
2021/03/24 06:06:43;;;;;;;1.67;1.10;;;22.60;43.20;;;;;;5068611;28;20502;-65
2021/03/24 06:09:30;;;;;;;2.63;1.15;;;22.50;43.10;;;;;;5067076;28;20111;-62
2021/03/24 06:12:33;;;;;;;1.85;1.15;;;22.50;43.10;;;;;;5073377;28;20094;-64
2021/03/24 06:15:17;;;;;;;2.65;1.10;;;22.50;43.10;;;;;;5074538;28;20154;-63
2021/03/24 06:17:52;;;;;;;1.88;1.17;;;22.50;43.10;;;;;;5066649;28;20056;-63
2021/03/24 06:20:46;;;;;;;1.98;1.27;;;22.50;43.10;;;;;;5076486;28;20028;-63
2021/03/24 06:23:25;;;;;;;1.83;1.20;;;22.50;43.00;;;;;;5078219;28;20147;-66
2021/03/24 06:26:22;;;;;;;1.98;1.27;;;22.50;42.90;;;;;;5079107;28;20553;-63
2021/03/24 06:29:25;;;;;;;2.03;1.20;;;22.50;42.80;;;;;;5062547;28;20046;-63
2021/03/24 06:32:15;;;;;;;2.22;1.20;;;22.50;42.80;;;;;;5071617;28;20041;-64
2021/03/24 06:34:59;;;;;;;1.77;1.10;;;22.50;42.70;;;;;;5061726;28;20028;-64
2021/03/24 06:37:52;;;;;;;2.22;1.30;;;22.40;42.60;;;;;;5066374;28;20033;-63
2021/03/24 06:40:33;;;;;;;1.75;1.05;;;22.50;42.60;;;;;;5066630;28;20047;-65
2021/03/24 06:43:30;;;;;;;2.03;1.40;;;22.50;42.60;;;;;;5083716;28;20100;-66
2021/03/24 06:46:29;;;;;;;2.15;1.25;;;22.40;42.50;;;;;;5064994;28;20139;-63
2021/03/24 06:48:58;;;;;;;2.22;1.30;;;22.40;42.50;;;;;;5064269;28;20064;-63
2021/03/24 06:51:51;;;;;;;2.13;1.43;;;22.40;42.50;;;;;;5072356;28;20425;-63
2021/03/24 06:54:45;;;;;;;2.72;1.40;;;22.40;42.40;;;;;;5058549;28;20040;-66
2021/03/24 06:57:29;;;;;;;2.83;1.38;;;22.40;42.50;;;;;;5072905;28;20111;-64
2021/03/24 07:00:12;;;;;;;2.05;1.30;;;22.40;42.50;;;;;;5071002;28;20498;-63
2021/03/24 07:03:03;;;;;;;2.00;1.35;;;22.40;42.40;;;;;;5039105;28;20040;-63
2021/03/24 07:05:28;;;;;;;1.63;1.15;;;22.40;42.40;;;;;;5070038;28;20029;-64
2021/03/24 07:08:24;;;;;;;2.22;1.48;;;22.40;42.50;;;;;;5083934;28;20495;-65
2021/03/24 07:11:09;;;;;;;2.17;1.40;;;22.40;42.60;;;;;;5045399;28;20123;-67
2021/03/24 07:13:40;;;;;;;2.45;1.30;;;22.40;42.60;;;;;;5069917;28;20027;-67
2021/03/24 07:16:08;;;;;;;2.38;1.42;;;22.40;42.70;;;;;;5041856;28;20056;-65
2021/03/24 07:19:22;;;;;;;2.75;1.48;;;22.50;42.80;;;;;;5067405;28;20367;-66
2021/03/24 07:22:04;;;;;;;2.13;1.20;;;22.50;42.80;;;;;;5043207;28;20129;-64
2021/03/24 07:24:55;;;;;;;2.50;1.67;;;22.50;42.80;;;;;;5067776;28;20035;-66
2021/03/24 07:27:30;;;;;;;1.83;1.30;;;22.60;42.80;;;;;;5075292;28;20092;-64
2021/03/24 07:30:14;;;;;;;1.80;1.30;;;22.60;42.90;;;;;;5068916;28;20116;-66
2021/03/24 07:32:46;;;;;;;2.97;1.60;;;22.60;42.90;;;;;;5084016;28;20048;-63
2021/03/24 07:35:27;;;;;;;2.00;1.27;;;22.70;42.90;;;;;;5069846;28;20020;-67
2021/03/24 07:38:41;;;;;;;2.30;1.60;;;22.70;42.90;;;;;;5077147;28;20025;-68
2021/03/24 07:41:46;;;;;;;1.85;1.27;;;22.70;42.80;;;;;;5064400;28;20047;-66
2021/03/24 07:44:30;;;;;;;2.17;1.30;;;22.80;42.90;;;;;;5077132;28;20809;-67
2021/03/24 07:47:33;;;;;;;1.85;1.20;;;22.80;43.00;;;;;;5071369;28;20039;-63
2021/03/24 07:50:10;;;;;;;1.88;1.20;;;22.80;42.90;;;;;;5050260;28;20035;-66
2021/03/24 07:52:41;;;;;;;2.38;1.38;;;22.80;42.90;;;;;;5083294;28;20028;-66
2021/03/24 07:55:18;;;;;;;1.98;1.25;;;22.80;42.80;;;;;;5061231;28;20506;-64
2021/03/24 07:57:52;;;;;;;1.55;1.10;;;22.90;43.00;;;;;;5066484;28;20033;-67
2021/03/24 08:00:43;;;;;;;1.88;1.20;;;22.90;43.40;;;;;;5070832;28;20020;-67
2021/03/24 08:03:18;;;;;;;1.85;1.30;;;22.90;42.90;;;;;;5054285;28;20064;-67
2021/03/24 08:06:02;;;;;;;1.70;1.20;;;23.00;42.90;;;;;;5067386;28;20067;-66
2021/03/24 08:08:50;;;;;;;2.17;1.27;;;23.00;42.90;;;;;;5072568;28;20112;-67
2021/03/24 08:11:35;;;;;;;1.92;1.20;;;23.00;43.00;;;;;;5062841;28;20032;-68
2021/03/24 08:14:16;;;;;;;2.75;1.30;;;23.00;43.00;;;;;;5070076;28;20040;-63
2021/03/24 08:16:54;;;;;;;1.65;1.13;;;23.10;43.00;;;;;;5061735;28;20963;-62
2021/03/24 08:19:25;;;;;;;2.15;1.33;;;23.10;43.10;;;;;;5065614;28;20093;-66
2021/03/24 08:22:26;;;;;;;1.95;1.20;;;23.20;43.00;;;;;;5069141;28;20576;-68
2021/03/24 08:25:00;;;;;;;1.90;1.13;;;23.20;43.00;;;;;;5052740;28;20107;-65
2021/03/24 08:27:48;;;;;;;1.85;1.20;;;23.20;43.00;;;;;;5078098;28;20024;-64
2021/03/24 08:30:25;;;;;;;2.25;1.30;;;23.20;43.00;;;;;;5074377;28;20035;-65
2021/03/24 08:33:29;;;;;;;2.22;1.20;;;23.20;43.00;;;;;;5074286;28;20060;-64
2021/03/24 08:36:13;;;;;;;2.13;1.48;;;23.30;43.00;;;;;;4996708;28;20644;-67
2021/03/24 08:39:15;;;;;;;1.48;1.00;;;23.30;43.00;;;;;;5013980;28;20943;-64
2021/03/24 08:41:51;;;;;;;2.08;1.25;;;23.30;43.00;;;;;;5055246;28;20830;-65
2021/03/24 08:44:39;;;;;;;1.80;1.42;;;23.40;43.10;;;;;;5064690;28;20056;-66
2021/03/24 08:47:25;;;;;;;2.30;1.30;;;23.40;43.00;;;;;;5047182;28;20032;-66
2021/03/24 08:49:57;;;;;;;1.40;1.00;;;23.40;43.00;;;;;;5068578;28;20548;-68
2021/03/24 08:52:51;;;;;;;1.65;1.08;;;23.40;42.90;;;;;;5065173;28;20032;-64
2021/03/24 08:55:24;;;;;;;1.70;1.17;;;23.50;42.90;;;;;;5065633;28;20534;-66
2021/03/24 08:58:14;;;;;;;2.03;1.30;;;23.50;42.90;;;;;;5065255;28;20078;-66
2021/03/24 09:01:03;;;;;;;1.67;1.10;;;23.50;42.90;;;;;;5070368;28;20140;-66
2021/03/24 09:03:40;;;;;;;1.98;1.20;;;23.50;42.90;;;;;;5055881;28;20048;-68
2021/03/24 09:06:17;;;;;;;1.75;1.17;;;23.60;42.90;;;;;;5072452;28;20378;-66
2021/03/24 09:09:16;;;;;;;1.48;1.05;;;23.60;42.90;;;;;;5053294;28;20032;-68
2021/03/24 09:11:58;;;;;;;2.00;1.30;;;23.60;42.90;;;;;;5082167;28;20062;-64
2021/03/24 09:14:55;;;;;;;1.80;1.08;;;23.60;42.90;;;;;;5064549;28;20046;-65
2021/03/24 09:17:58;;;;;;;2.05;1.27;;;23.70;43.00;;;;;;5074174;28;20032;-67
2021/03/24 09:20:45;;;;;;;1.55;1.00;;;23.70;42.90;;;;;;5067553;28;20036;-67
2021/03/24 09:23:41;;;;;;;1.35;0.93;;;23.70;42.80;;;;;;5054323;28;20028;-67
2021/03/24 09:26:48;;;;;;;1.95;1.20;;;23.80;42.80;;;;;;5077896;28;20105;-67
2021/03/24 09:29:44;;;;;;;1.75;1.10;;;23.80;42.80;;;;;;5059655;28;20039;-68
2021/03/24 09:32:26;;;;;;;1.83;1.30;;;23.80;42.80;;;;;;5060833;28;20040;-67
2021/03/24 09:35:13;;;;;;;1.77;1.20;;;23.90;42.70;;;;;;5074124;28;20028;-67
2021/03/24 09:37:44;;;;;;;1.70;1.10;;;23.90;43.30;;;;;;5062451;28;20102;-64
2021/03/24 09:40:28;;;;;;;2.10;1.20;;;23.90;42.90;;;;;;5046768;28;20035;-68
2021/03/24 09:42:56;;;;;;;1.25;0.93;;;23.90;42.70;;;;;;5065818;28;20522;-69
2021/03/24 09:45:27;;;;;;;2.05;1.30;;;24.00;42.70;;;;;;5070564;28;20045;-67
2021/03/24 09:48:05;;;;;;;1.33;1.00;;;24.00;42.70;;;;;;5073744;28;20483;-69
2021/03/24 09:50:38;;;;;;;1.67;1.00;;;24.00;42.70;;;;;;5065763;28;20355;-67
2021/03/24 09:53:04;;;;;;;3.17;1.10;;;24.10;42.70;;;;;;5054579;28;20016;-66
2021/03/24 09:55:34;;;;;;;1.70;1.10;;;24.10;42.60;;;;;;5062888;28;20036;-68
2021/03/24 09:58:21;;;;;;;2.45;1.20;;;24.10;42.60;;;;;;5062140;28;20052;-68
2021/03/24 10:00:57;;;;;;;2.10;1.20;;;24.20;42.60;;;;;;5065061;28;20044;-68
2021/03/24 10:03:45;;;;;;;2.30;1.15;;;24.20;42.60;;;;;;5052986;28;20087;-67
2021/03/24 10:06:37;;;;;;;1.98;1.10;;;24.20;42.50;;;;;;5071785;28;20471;-67
2021/03/24 10:09:17;;;;;;;1.63;1.08;;;24.30;43.10;;;;;;5063724;28;20107;-66
2021/03/24 10:11:55;;;;;;;1.63;1.10;;;24.30;42.50;;;;;;5044908;28;20421;-68
2021/03/24 10:14:38;;;;;;;1.55;0.98;;;24.30;42.50;;;;;;5065536;28;20043;-64
2021/03/24 10:17:16;;;;;;;1.80;1.30;;;24.30;42.50;;;;;;5066882;28;20136;-70
2021/03/24 10:19:47;;;;;;;1.35;1.05;;;24.40;42.50;;;;;;5064625;28;20107;-70
2021/03/24 10:22:20;;;;;;;1.75;1.10;;;24.40;42.50;;;;;;5062859;28;20028;-61
2021/03/24 10:24:58;;;;;;;1.70;1.20;;;24.40;42.40;;;;;;5069754;28;20067;-58
2021/03/24 10:27:26;;;;;;;1.65;1.10;;;24.40;42.40;;;;;;5055682;28;20071;-59
2021/03/24 10:30:08;;;;;;;1.70;1.02;;;24.50;42.30;;;;;;5048651;28;20239;-60
2021/03/24 10:33:28;;;;;;;2.90;1.23;;;24.50;42.20;;;;;;5059185;28;20090;-61
2021/03/24 10:36:02;;;;;;;1.50;1.08;;;24.50;42.30;;;;;;5026400;28;20800;-60
2021/03/24 10:38:41;;;;;;;1.90;1.08;;;24.50;42.20;;;;;;5055606;28;20475;-63
2021/03/24 10:41:19;;;;;;;1.70;1.05;;;24.50;42.30;;;;;;5074473;28;20031;-62
2021/03/24 10:43:47;;;;;;;2.17;1.30;;;24.60;42.20;;;;;;5068013;28;20028;-62
2021/03/24 10:46:26;;;;;;;1.83;1.20;;;24.60;42.20;;;;;;5045771;28;20036;-62
2021/03/24 10:49:01;;;;;;;1.57;1.00;;;24.60;42.20;;;;;;5064640;28;20355;-64
2021/03/24 10:51:33;;;;;;;1.48;0.90;;;24.60;42.30;;;;;;5065249;28;20108;-60
2021/03/24 10:54:19;;;;;;;1.67;1.08;;;24.60;42.30;;;;;;5063294;28;20471;-60
2021/03/24 10:57:04;;;;;;;1.45;1.00;;;24.70;42.30;;;;;;5064685;28;20570;-63
2021/03/24 10:59:35;;;;;;;1.85;1.13;;;24.70;42.30;;;;;;5063629;28;20035;-61
2021/03/24 11:02:23;;;;;;;1.40;1.00;;;24.70;42.30;;;;;;5066138;28;20077;-62
2021/03/24 11:04:49;;;;;;;1.45;0.98;;;24.70;42.30;;;;;;5072316;28;20097;-60
2021/03/24 11:07:33;;;;;;;1.67;1.05;;;24.70;42.20;;;;;;5071529;28;20029;-62
2021/03/24 11:10:17;;;;;;;2.42;1.10;;;24.70;42.20;;;;;;5064947;28;20233;-58
2021/03/24 11:12:56;;;;;;;1.52;1.00;;;24.70;42.30;;;;;;5045392;28;20043;-60
2021/03/24 11:15:50;;;;;;;1.90;1.20;;;24.70;42.30;;;;;;5054081;28;20032;-60
2021/03/24 11:18:21;;;;;;;1.48;1.00;;;24.70;42.30;;;;;;5067982;28;20044;-63
2021/03/24 11:20:58;;;;;;;1.48;1.02;;;24.70;42.20;;;;;;5060209;28;20094;-62
2021/03/24 11:23:44;;;;;;;2.22;1.10;;;24.70;42.20;;;;;;5071326;28;20128;-59
2021/03/24 11:26:46;;;;;;;1.60;1.00;;;24.70;42.20;;;;;;5047582;28;20032;-61
2021/03/24 11:29:18;;;;;;;1.70;1.08;;;24.70;42.20;;;;;;5054597;28;20025;-61
2021/03/24 11:31:58;;;;;;;1.38;0.90;;;24.80;42.30;;;;;;5071961;28;20138;-62
2021/03/24 11:34:33;;;;;;;1.17;0.90;;;24.70;42.20;;;;;;5056376;28;20457;-62
2021/03/24 11:37:05;;;;;;;1.63;1.10;;;24.70;42.30;;;;;;5065907;28;20059;-61
2021/03/24 11:39:45;;;;;;;1.80;1.00;;;24.70;42.30;;;;;;5043931;28;20111;-63
2021/03/24 11:42:14;;;;;;;1.65;1.10;;;24.70;42.20;;;;;;5062198;28;20025;-68
2021/03/24 11:44:41;;;;;;;1.25;1.00;;;24.80;42.30;;;;;;5068478;28;20036;-68
2021/03/24 11:47:15;;;;;;;1.40;1.05;;;24.80;42.30;;;;;;5069866;28;20360;-68
2021/03/24 11:50:01;;;;;;;2.40;1.05;;;24.70;42.30;;;;;;5077005;28;20027;-66
2021/03/24 11:52:43;;;;;;;1.80;1.00;;;24.70;42.20;;;;;;5066230;28;20031;-67
2021/03/24 11:55:28;;;;;;;1.95;1.15;;;24.70;42.20;;;;;;5068050;28;20040;-67
2021/03/24 11:58:12;;;;;;;1.33;1.10;;;24.70;42.10;;;;;;5066501;28;20043;-67
2021/03/24 12:00:54;;;;;;;1.83;0.98;;;24.70;42.20;;;;;;5054188;28;20108;-67
2021/03/24 12:03:34;;;;;;;1.45;1.05;;;24.70;42.10;;;;;;5067352;28;20032;-68
2021/03/24 12:06:04;;;;;;;2.13;1.20;;;24.70;42.10;;;;;;5049213;28;20479;-68
2021/03/24 12:09:09;;;;;;;2.45;1.00;;;24.70;42.10;;;;;;5062832;28;20029;-61
2021/03/24 12:11:38;;;;;;;2.15;1.08;;;24.70;42.10;;;;;;5058859;28;20440;-60
2021/03/24 12:14:18;;;;;;;1.90;1.10;;;24.70;42.00;;;;;;5068509;28;20435;-63
2021/03/24 12:16:49;;;;;;;1.80;1.00;;;24.80;42.00;;;;;;5072690;28;20028;-62
2021/03/24 12:19:30;;;;;;;1.15;0.90;;;24.80;42.00;;;;;;5044898;28;20792;-62
2021/03/24 12:22:02;;;;;;;1.30;1.00;;;24.80;41.90;;;;;;5068823;28;20046;-62
2021/03/24 12:24:37;;;;;;;1.00;0.85;;;24.80;42.00;;;;;;5064550;28;20369;-60
2021/03/24 12:27:19;;;;;;;1.73;0.93;;;24.80;42.00;;;;;;5061326;28;20064;-61
2021/03/24 12:29:57;;;;;;;1.13;0.82;;;24.80;42.00;;;;;;5065550;28;20129;-63
2021/03/24 12:32:26;;;;;;;1.40;1.00;;;24.80;42.10;;;;;;5075476;28;20402;-59
2021/03/24 12:34:53;;;;;;;1.23;1.00;;;24.80;42.00;;;;;;5067699;28;20411;-60
2021/03/24 12:37:23;;;;;;;1.33;0.90;;;24.90;42.10;;;;;;5065528;28;20028;-60
2021/03/24 12:39:51;;;;;;;1.10;0.90;;;24.90;42.10;;;;;;5069429;28;20028;-62
2021/03/24 12:42:16;;;;;;;1.35;0.90;;;24.90;42.20;;;;;;5065433;28;20064;-62
2021/03/24 12:44:43;;;;;;;1.23;0.90;;;24.90;42.20;;;;;;5068638;28;20075;-60
2021/03/24 12:47:24;;;;;;;2.00;1.00;;;24.90;42.20;;;;;;5067621;28;20037;-60
2021/03/24 12:50:15;;;;;;;1.23;0.90;;;24.90;42.20;;;;;;5071973;28;20364;-62
2021/03/24 12:53:04;;;;;;;1.15;0.85;;;24.90;42.20;;;;;;5044984;28;20100;-62
2021/03/24 12:55:31;;;;;;;1.27;0.80;;;24.90;42.10;;;;;;5077557;28;20037;-60
2021/03/24 12:58:38;;;;;;;1.17;0.82;;;24.90;42.20;;;;;;5046631;28;20055;-63
2021/03/24 13:01:18;;;;;;;0.70;0.70;;;24.90;42.10;;;;;;5003513;28;20071;-65
2021/03/24 13:04:16;;;;;;;1.42;1.00;;;24.90;42.10;;;;;;5069430;28;20021;-67
2021/03/24 13:07:00;;;;;;;1.98;0.90;;;24.90;42.10;;;;;;5014926;28;20041;-65
2021/03/24 13:09:32;;;;;;;1.38;0.93;;;24.90;42.10;;;;;;5059058;28;20553;-59
2021/03/24 13:12:16;;;;;;;1.50;1.15;;;25.00;42.10;;;;;;5066147;28;20400;-62
2021/03/24 13:14:44;;;;;;;1.98;1.00;;;25.00;42.10;;;;;;5050458;28;20016;-59
2021/03/24 13:17:19;;;;;;;1.60;1.20;;;25.00;42.20;;;;;;5075368;28;20043;-61
2021/03/24 13:20:14;;;;;;;1.95;1.00;;;25.00;42.20;;;;;;5051275;28;20077;-60
2021/03/24 13:22:55;;;;;;;1.77;0.93;;;25.00;42.20;;;;;;5036849;28;20041;-61
2021/03/24 13:25:35;;;;;;;1.52;1.00;;;25.10;42.20;;;;;;5062742;28;20561;-61
2021/03/24 13:28:37;;;;;;;1.77;1.10;;;25.00;42.10;;;;;;5073651;28;20012;-62
2021/03/24 13:31:27;;;;;;;1.40;0.90;;;25.10;42.10;;;;;;5071614;28;20131;-62
2021/03/24 13:34:02;;;;;;;;;;;25.10;42.10;;;;;;5064622;28;20024;-59
2021/03/24 13:36:47;;;;;;;0.98;0.80;;;25.10;42.10;;;;;;5072568;28;20367;-61
2021/03/24 13:39:29;;;;;;;1.52;1.05;;;25.10;42.00;;;;;;5067749;28;20108;-62
2021/03/24 13:41:59;;;;;;;0.80;0.70;;;25.10;42.00;;;;;;5070761;28;20024;-63
2021/03/24 13:44:49;;;;;;;1.15;0.80;;;25.10;42.10;;;;;;5063236;28;20094;-62